South Lebanon, Ohio
Current Conditions -  °F | °C
As of 9:15 AM on Sunday 25 Jan 2015 (Local Time) from KMWO Reporting Station
Haze Haze  
Wind Chill: 37°   Ceiling: 6000
Heat Index: 37°   Visibility: 5mi
Dew Point: 33°   Wind: 0mph
Humidity: 85%   Direction: NA
Pressure: 29.74"   Gusts: NA
Location:  39.37°N, 84.21°W
Report Text: KMWO 251415Z AUTO 00000KT 5SM BR SCT048 BKN060 OVC070 03/00 A2974 RMK AO2 T00260003
Loading
Personal Weather Stations






























Interactive Weather Map New forecast layout! Learn more

10-Day Weather Forecast

Advertisements
Track Severe Weather on mobile